Time;durP1;ratioP1;P1;durP2;ratioP2;P2;SDS_P1;SDS_P2;PMS_P1;PMS_P2;Temp;Humidity;BMP_temperature;BMP_pressure;BME280_temperature;BME280_humidity;BME280_pressure;Samples;Min_cycle;Max_cycle;Signal;HPM_P1;HPM_P2
2023/04/16 00:00:10;;;;;;;12.73;3.37;;;9.30;99.90;;;;;;4054125;29;20707;-93
2023/04/16 00:02:14;;;;;;;9.97;2.60;;;9.30;99.90;;;;;;4070870;29;20169;-92
2023/04/16 00:04:15;;;;;;;14.23;3.60;;;9.30;99.90;;;;;;4054476;29;20708;-94
2023/04/16 00:06:16;;;;;;;13.07;3.60;;;9.10;99.90;;;;;;4070198;29;20180;-93
2023/04/16 00:08:16;;;;;;;8.20;2.57;;;9.00;99.90;;;;;;4054247;29;20282;-92
2023/04/16 00:10:17;;;;;;;9.00;3.17;;;8.90;99.90;;;;;;4069973;29;20176;-94
2023/04/16 00:12:18;;;;;;;13.93;3.90;;;9.00;99.90;;;;;;4054104;29;20180;-93
2023/04/16 00:14:19;;;;;;;8.90;2.90;;;8.90;99.90;;;;;;4069896;29;20206;-94
2023/04/16 00:16:20;;;;;;;9.60;2.90;;;8.80;99.90;;;;;;4070464;29;20188;-93
2023/04/16 00:18:20;;;;;;;12.63;3.20;;;8.60;99.90;;;;;;4054416;29;20177;-93
2023/04/16 00:20:21;;;;;;;7.30;2.40;;;8.60;99.90;;;;;;4070232;29;20184;-94
2023/04/16 00:22:22;;;;;;;7.10;2.70;;;8.50;99.90;;;;;;4054268;29;20181;-92
2023/04/16 00:24:23;;;;;;;11.70;3.17;;;8.60;99.90;;;;;;4069681;29;20197;-94
2023/04/16 00:26:23;;;;;;;13.23;3.77;;;8.70;99.90;;;;;;4053405;29;20191;-93
2023/04/16 00:28:26;;;;;;;9.50;2.93;;;8.70;99.90;;;;;;4069522;29;20173;-93
2023/04/16 00:30:27;;;;;;;16.83;3.20;;;8.70;99.90;;;;;;4053897;29;20208;-93
2023/04/16 00:32:28;;;;;;;10.17;2.90;;;8.70;99.90;;;;;;4085357;29;20172;-93
2023/04/16 00:34:29;;;;;;;9.90;2.77;;;8.70;99.90;;;;;;4053758;29;20201;-93
2023/04/16 00:36:30;;;;;;;9.80;2.50;;;8.80;99.90;;;;;;4054051;29;20263;-93
2023/04/16 00:38:31;;;;;;;7.30;2.40;;;8.80;99.90;;;;;;4069407;29;20180;-93
2023/04/16 00:40:32;;;;;;;7.97;2.23;;;8.80;99.90;;;;;;4069715;29;20185;-93
2023/04/16 00:42:33;;;;;;;10.17;2.00;;;8.90;99.90;;;;;;4053918;29;20722;-93
2023/04/16 00:44:34;;;;;;;8.80;2.20;;;9.00;99.90;;;;;;4069018;29;20222;-93
2023/04/16 00:46:36;;;;;;;12.00;2.20;;;9.00;99.90;;;;;;4053726;29;20208;-94
2023/04/16 00:48:38;;;;;;;11.57;2.50;;;9.00;99.90;;;;;;4053655;29;20177;-94
2023/04/16 00:50:39;;;;;;;8.53;2.17;;;9.00;99.90;;;;;;4053675;29;20775;-94
2023/04/16 00:52:40;;;;;;;10.57;2.20;;;9.00;99.90;;;;;;4053859;29;20176;-94
2023/04/16 00:54:40;;;;;;;8.17;2.30;;;8.90;99.90;;;;;;4069501;29;20200;-92
2023/04/16 00:56:41;;;;;;;8.10;2.53;;;8.90;99.90;;;;;;4085062;29;20186;-93
2023/04/16 00:58:42;;;;;;;11.03;2.57;;;8.80;99.90;;;;;;4053629;29;20216;-92
2023/04/16 01:00:43;;;;;;;13.60;2.70;;;8.80;99.90;;;;;;4053697;29;20671;-93
2023/04/16 01:02:43;;;;;;;6.57;2.20;;;8.80;99.90;;;;;;4069355;29;20168;-92
2023/04/16 01:04:44;;;;;;;11.10;2.30;;;8.80;99.90;;;;;;4084959;29;20707;-93
2023/04/16 01:06:45;;;;;;;9.03;1.87;;;8.70;99.90;;;;;;4053614;29;20598;-94
2023/04/16 01:08:47;;;;;;;5.30;2.00;;;8.70;99.90;;;;;;4084785;29;20183;-93
2023/04/16 01:10:48;;;;;;;9.50;2.10;;;8.80;99.90;;;;;;4053729;29;20177;-92
2023/04/16 01:12:48;;;;;;;4.37;1.93;;;8.80;99.90;;;;;;4084677;29;20188;-93
2023/04/16 01:14:49;;;;;;;10.00;2.13;;;8.80;99.90;;;;;;4053295;29;20666;-93
2023/04/16 01:16:50;;;;;;;7.23;1.73;;;8.80;99.90;;;;;;4084820;29;20172;-93
2023/04/16 01:18:51;;;;;;;5.47;1.97;;;8.80;99.90;;;;;;4053716;29;20685;-93
2023/04/16 01:20:51;;;;;;;7.00;1.83;;;8.90;99.90;;;;;;4084704;29;20187;-92
2023/04/16 01:22:52;;;;;;;5.83;1.90;;;9.00;99.90;;;;;;4053466;29;20202;-93
2023/04/16 01:24:53;;;;;;;6.77;1.97;;;9.10;99.90;;;;;;4084525;29;20305;-94
2023/04/16 01:26:53;;;;;;;11.90;2.10;;;9.00;99.90;;;;;;4053507;29;20586;-93
2023/04/16 01:28:55;;;;;;;5.30;2.13;;;8.80;99.90;;;;;;4084501;29;20194;-93
2023/04/16 01:30:56;;;;;;;8.67;2.10;;;8.90;99.90;;;;;;4053538;29;20615;-94
2023/04/16 01:33:14;;;;;;;6.53;1.73;;;9.00;99.90;;;;;;4068590;29;20207;-93
2023/04/16 01:35:16;;;;;;;6.97;1.80;;;9.00;99.90;;;;;;4068642;29;20172;-92
2023/04/16 01:37:18;;;;;;;9.43;2.10;;;9.10;99.90;;;;;;4053046;29;20189;-93
2023/04/16 01:39:20;;;;;;;6.80;1.47;;;9.20;99.90;;;;;;4068047;29;20180;-93
2023/04/16 01:41:21;;;;;;;7.47;1.70;;;9.10;99.90;;;;;;4068777;29;20228;-93
2023/04/16 01:43:22;;;;;;;5.83;1.30;;;8.90;99.90;;;;;;4084251;29;20200;-95
2023/04/16 01:45:22;;;;;;;5.20;1.57;;;8.80;99.90;;;;;;4052627;29;20213;-91
2023/04/16 01:47:23;;;;;;;6.67;1.20;;;9.00;99.90;;;;;;4084296;29;20603;-94
2023/04/16 01:49:24;;;;;;;8.27;1.77;;;9.30;99.90;;;;;;4068368;29;20211;-92
2023/04/16 01:51:26;;;;;;;7.10;1.43;;;9.50;99.90;;;;;;4084183;29;20178;-93
2023/04/16 01:53:26;;;;;;;4.17;1.17;;;9.50;99.90;;;;;;4053045;29;20209;-91
2023/04/16 01:55:27;;;;;;;7.40;1.23;;;9.40;99.90;;;;;;4084286;29;20271;-92
2023/04/16 01:57:28;;;;;;;5.57;0.90;;;9.20;99.90;;;;;;4052570;29;20544;-93
2023/04/16 01:59:29;;;;;;;8.07;1.10;;;9.20;99.90;;;;;;4084035;29;20186;-92
2023/04/16 02:01:30;;;;;;;8.73;1.50;;;9.20;99.90;;;;;;4052342;29;20184;-92
2023/04/16 02:03:31;;;;;;;1.57;0.47;;;9.10;99.90;;;;;;4084092;29;20199;-93
2023/04/16 02:05:32;;;;;;;7.50;1.20;;;9.00;99.90;;;;;;4052724;29;20247;-94
2023/04/16 02:07:32;;;;;;;7.33;1.20;;;8.90;99.90;;;;;;4083844;29;20581;-94
2023/04/16 02:09:34;;;;;;;6.47;1.23;;;9.00;99.90;;;;;;4052579;29;20176;-94
2023/04/16 02:11:37;;;;;;;10.93;1.40;;;9.10;99.90;;;;;;4052870;29;20185;-94
2023/04/16 02:13:38;;;;;;;6.47;0.83;;;9.20;99.90;;;;;;4067846;29;20235;-94
2023/04/16 02:15:39;;;;;;;4.40;0.70;;;9.60;99.90;;;;;;4052407;29;20184;-94
2023/04/16 02:17:40;;;;;;;6.07;1.07;;;9.60;99.90;;;;;;4068088;29;20200;-93
2023/04/16 02:19:43;;;;;;;5.70;0.83;;;9.70;99.90;;;;;;4052759;29;20177;-94
2023/04/16 02:21:44;;;;;;;6.80;0.93;;;9.80;99.90;;;;;;4067928;29;20171;-93
2023/04/16 02:23:46;;;;;;;7.87;1.20;;;9.80;99.90;;;;;;4052247;29;20264;-92
2023/04/16 02:25:47;;;;;;;6.90;1.10;;;9.80;99.90;;;;;;4068052;29;20211;-92
2023/04/16 02:27:49;;;;;;;7.87;1.23;;;9.50;99.90;;;;;;4052299;29;20286;-93
2023/04/16 02:30:10;;;;;;;5.80;0.90;;;9.50;99.90;;;;;;4068031;29;20179;-94
2023/04/16 02:32:11;;;;;;;7.03;0.60;;;9.30;99.90;;;;;;4068152;29;20188;-93
2023/04/16 02:34:12;;;;;;;8.20;1.07;;;9.60;99.90;;;;;;4052359;29;20257;-92
2023/04/16 02:36:13;;;;;;;6.53;0.80;;;9.70;99.90;;;;;;4068008;29;20709;-93
2023/04/16 02:38:13;;;;;;;9.03;1.00;;;9.80;99.90;;;;;;4083450;29;20182;-93
2023/04/16 02:40:14;;;;;;;6.13;0.80;;;9.70;99.90;;;;;;4052115;29;20809;-94
2023/04/16 02:42:15;;;;;;;6.07;0.80;;;10.10;99.90;;;;;;4068037;29;20267;-95
2023/04/16 02:44:16;;;;;;;9.93;1.00;;;9.80;99.90;;;;;;4052083;29;20645;-94
2023/04/16 02:46:16;;;;;;;5.97;0.80;;;9.80;99.90;;;;;;4052016;29;20219;-93
2023/04/16 02:48:17;;;;;;;11.47;0.80;;;9.90;99.90;;;;;;4067991;29;20553;-94
2023/04/16 02:50:18;;;;;;;5.40;0.60;;;10.00;99.90;;;;;;4056148;29;20180;-93
2023/04/16 02:52:19;;;;;;;7.70;1.13;;;9.60;99.90;;;;;;4073033;29;20179;-93
2023/04/16 02:54:19;;;;;;;4.40;0.87;;;9.50;99.90;;;;;;4088599;29;20588;-93
2023/04/16 02:56:20;;;;;;;4.67;0.80;;;9.30;99.90;;;;;;4056983;29;20185;-94
2023/04/16 02:58:23;;;;;;;4.67;1.00;;;9.20;99.90;;;;;;4088329;29;20179;-93
2023/04/16 03:00:24;;;;;;;10.93;1.43;;;9.20;99.90;;;;;;4057092;29;20241;-92
2023/04/16 09:04:14;;;;;;;14.97;3.37;;;11.00;99.90;;;;;;501679;23;20582;-91
2023/04/16 09:06:16;;;;;;;10.45;3.40;;;11.00;99.90;;;;;;4051494;29;20212;-91
2023/04/16 09:08:17;;;;;;;11.63;3.95;;;10.80;99.90;;;;;;4053342;29;20181;-92
2023/04/16 09:10:19;;;;;;;12.82;3.92;;;10.70;99.90;;;;;;4053108;29;20173;-91
2023/04/16 09:12:23;;;;;;;11.18;3.25;;;10.60;99.90;;;;;;4052947;29;20185;-92
2023/04/16 09:14:24;;;;;;;10.83;3.37;;;10.60;99.90;;;;;;4024818;29;20198;-95
2023/04/16 09:16:26;;;;;;;9.50;3.35;;;10.60;99.90;;;;;;4052828;29;20204;-92
2023/04/16 09:18:27;;;;;;;9.60;3.67;;;10.40;99.90;;;;;;4052689;29;20248;-92
2023/04/16 09:20:28;;;;;;;14.17;3.70;;;10.40;99.90;;;;;;4052912;29;20538;-91
2023/04/16 09:22:28;;;;;;;10.73;3.77;;;10.40;99.90;;;;;;4053031;29;20694;-93
2023/04/16 09:24:30;;;;;;;8.50;3.47;;;10.20;99.90;;;;;;4052794;29;20733;-92
2023/04/16 09:26:31;;;;;;;10.32;3.63;;;10.40;99.90;;;;;;4052712;29;20212;-93
2023/04/16 09:28:42;;;;;;;16.60;3.57;;;10.70;99.90;;;;;;4052591;29;20180;-90
2023/04/16 09:30:43;;;;;;;7.53;3.45;;;10.80;99.90;;;;;;4053091;29;20267;-92
2023/04/16 09:32:44;;;;;;;10.30;3.45;;;10.80;99.90;;;;;;4052489;29;20177;-92
2023/04/16 09:34:59;;;;;;;9.82;3.10;;;11.10;99.90;;;;;;4052733;29;20201;-93
2023/04/16 09:37:16;;;;;;;6.90;2.60;;;10.70;99.90;;;;;;4052701;29;20272;-92
2023/04/16 09:39:19;;;;;;;7.22;2.83;;;10.60;99.90;;;;;;4052617;29;20404;-91
2023/04/16 09:41:26;;;;;;;10.57;3.57;;;10.90;99.90;;;;;;4052624;29;20177;-91
2023/04/16 09:43:26;;;;;;;11.37;3.30;;;11.30;99.90;;;;;;4052398;29;20215;-92
2023/04/16 09:45:31;;;;;;;7.07;2.90;;;11.30;99.90;;;;;;4052573;29;20228;-91
2023/04/16 09:47:43;;;;;;;6.27;3.00;;;11.30;99.90;;;;;;4052707;29;20480;-91
2023/04/16 09:49:44;;;;;;;9.77;2.87;;;11.00;99.90;;;;;;4052835;29;20503;-93
2023/04/16 09:51:47;;;;;;;11.03;2.87;;;10.80;99.90;;;;;;4052920;29;20180;-94
2023/04/16 09:53:52;;;;;;;11.47;2.90;;;11.00;99.90;;;;;;4052787;29;20749;-94
2023/04/16 09:56:04;;;;;;;8.57;3.20;;;11.20;99.90;;;;;;4052740;29;20272;-93
2023/04/16 09:58:05;;;;;;;11.83;3.10;;;10.90;99.90;;;;;;4052908;29;20578;-94
2023/04/16 10:00:08;;;;;;;15.50;3.20;;;10.80;99.90;;;;;;4051770;29;20173;-93
2023/04/16 10:02:09;;;;;;;8.00;2.90;;;10.60;99.90;;;;;;4052346;29;20181;-94
2023/04/16 10:04:09;;;;;;;10.13;3.00;;;10.60;99.90;;;;;;4052743;29;20299;-94
2023/04/16 10:06:14;;;;;;;11.45;3.30;;;10.70;99.90;;;;;;4037245;29;20221;-92
2023/04/16 10:08:16;;;;;;;10.75;2.78;;;10.90;99.90;;;;;;4052847;29;20185;-95
2023/04/16 10:10:17;;;;;;;9.00;3.10;;;11.10;99.90;;;;;;4052826;29;20268;-94
2023/04/16 10:12:18;;;;;;;8.38;2.83;;;11.40;99.90;;;;;;4052983;29;20180;-94
2023/04/16 10:14:19;;;;;;;11.40;2.95;;;11.30;99.90;;;;;;4052498;29;20205;-94
2023/04/16 10:16:21;;;;;;;12.25;2.85;;;11.20;99.90;;;;;;4052724;29;20200;-93
2023/04/16 10:18:22;;;;;;;14.00;2.90;;;10.90;99.90;;;;;;4053046;29;20219;-93
2023/04/16 10:20:23;;;;;;;10.60;3.07;;;11.10;99.90;;;;;;4052800;29;20646;-93
2023/04/16 10:22:25;;;;;;;5.83;2.50;;;10.80;99.90;;;;;;4052902;29;20185;-94
2023/04/16 10:24:30;;;;;;;12.43;3.20;;;10.50;99.90;;;;;;4052390;29;20513;-94
2023/04/16 10:26:31;;;;;;;13.07;3.47;;;10.50;99.90;;;;;;4052561;29;20220;-94
2023/04/16 10:28:34;;;;;;;11.33;3.83;;;10.70;99.90;;;;;;4052749;29;20173;-94
2023/04/16 10:30:36;;;;;;;12.37;3.20;;;10.80;99.90;;;;;;4052895;29;20320;-95
2023/04/16 10:32:37;;;;;;;10.63;3.60;;;10.80;99.90;;;;;;4052988;29;20276;-95
2023/04/16 10:34:39;;;;;;;12.82;4.25;;;10.80;99.90;;;;;;4052387;29;20223;-94
2023/04/16 10:36:40;;;;;;;15.73;4.57;;;10.90;99.90;;;;;;4052477;29;20183;-94
2023/04/16 10:38:52;;;;;;;7.75;3.80;;;10.80;99.90;;;;;;4052150;29;20280;-93
2023/04/16 10:41:00;;;;;;;16.60;4.13;;;11.10;99.90;;;;;;4052392;29;20244;-94
2023/04/16 10:43:01;;;;;;;16.90;4.90;;;11.20;99.90;;;;;;4052256;29;20208;-93
2023/04/16 10:45:03;;;;;;;8.77;3.70;;;11.20;99.90;;;;;;4052008;29;20197;-95
2023/04/16 10:47:11;;;;;;;11.98;3.85;;;11.20;99.90;;;;;;4052421;29;20180;-93
2023/04/16 10:49:18;;;;;;;15.52;3.85;;;11.40;99.90;;;;;;4052163;29;20211;-95
2023/04/16 10:51:27;;;;;;;12.45;4.45;;;11.40;99.90;;;;;;4052228;29;20625;-93
2023/04/16 10:53:28;;;;;;;12.93;3.30;;;11.30;99.90;;;;;;4052301;29;20220;-94
2023/04/16 10:55:28;;;;;;;20.38;4.10;;;11.30;99.90;;;;;;4052253;29;20187;-94
2023/04/16 10:57:30;;;;;;;12.95;3.90;;;11.20;99.90;;;;;;4036684;29;20673;-94
2023/04/16 10:59:33;;;;;;;7.20;3.50;;;11.30;99.90;;;;;;4051998;29;20775;-94
2023/04/16 11:01:40;;;;;;;12.27;3.67;;;11.10;99.90;;;;;;4052050;29;20184;-93
2023/04/16 11:03:46;;;;;;;11.30;4.30;;;10.90;99.90;;;;;;4051935;29;20203;-95
2023/04/16 11:05:47;;;;;;;8.73;4.20;;;11.10;99.90;;;;;;4051719;29;20216;-94
2023/04/16 11:07:48;;;;;;;9.73;4.18;;;11.00;99.90;;;;;;4052209;29;20180;-94
2023/04/16 11:10:06;;;;;;;9.73;3.78;;;10.90;99.90;;;;;;4052309;29;20173;-94
2023/04/16 11:12:08;;;;;;;13.90;3.60;;;11.10;99.90;;;;;;4055206;29;20712;-95
2023/04/16 11:14:10;;;;;;;9.40;3.65;;;11.10;99.90;;;;;;4055225;29;20224;-93
2023/04/16 11:16:15;;;;;;;13.17;3.90;;;11.30;99.90;;;;;;4055202;29;20243;-93
2023/04/16 11:18:19;;;;;;;12.23;3.40;;;11.20;99.90;;;;;;4055178;29;20240;-93
2023/04/16 11:20:24;;;;;;;11.70;3.83;;;11.20;99.90;;;;;;4055214;29;20181;-93
2023/04/16 11:22:26;;;;;;;8.47;3.30;;;11.30;99.90;;;;;;4055200;29;20183;-93
2023/04/16 11:24:30;;;;;;;9.60;3.63;;;11.10;99.90;;;;;;4054937;29;20193;-94
2023/04/16 11:26:31;;;;;;;10.70;4.10;;;11.30;99.90;;;;;;4054913;29;20213;-94
2023/04/16 11:28:33;;;;;;;15.13;3.80;;;10.90;99.90;;;;;;4054892;29;20217;-94
2023/04/16 11:30:35;;;;;;;10.60;3.77;;;10.70;99.90;;;;;;4054924;29;20300;-94
2023/04/16 11:32:37;;;;;;;9.18;4.57;;;10.60;99.90;;;;;;4055013;29;20177;-93
2023/04/16 11:34:45;;;;;;;12.17;4.57;;;10.50;99.90;;;;;;4054959;29;20669;-93
2023/04/16 11:36:47;;;;;;;14.60;4.00;;;10.40;99.90;;;;;;4055359;29;20192;-94
2023/04/16 11:38:48;;;;;;;17.73;4.50;;;10.10;99.90;;;;;;4055187;29;20177;-93
2023/04/16 11:40:50;;;;;;;14.13;5.17;;;10.00;99.90;;;;;;4054991;29;20181;-93
2023/04/16 11:42:51;;;;;;;13.40;5.00;;;10.40;99.90;;;;;;4054727;29;20218;-93
2023/04/16 11:44:55;;;;;;;12.27;4.83;;;10.80;99.90;;;;;;4054801;29;20184;-95
2023/04/16 11:46:55;;;;;;;10.67;4.80;;;10.90;99.90;;;;;;4054786;29;20181;-94
2023/04/16 11:48:56;;;;;;;18.20;5.37;;;11.10;99.90;;;;;;4054770;29;20573;-93
2023/04/16 11:50:57;;;;;;;12.80;5.27;;;11.30;99.90;;;;;;4054719;29;20177;-93
2023/04/16 11:53:03;;;;;;;12.73;4.67;;;11.20;99.90;;;;;;4054562;29;20181;-93
2023/04/16 11:55:05;;;;;;;9.97;4.50;;;11.30;99.90;;;;;;4054699;29;20546;-94
2023/04/16 11:57:06;;;;;;;15.13;4.10;;;11.20;99.90;;;;;;4054658;29;20188;-94
2023/04/16 11:59:10;;;;;;;13.90;4.50;;;10.90;99.90;;;;;;4054469;29;20169;-94
2023/04/16 12:01:11;;;;;;;13.23;5.37;;;11.10;99.90;;;;;;4054445;29;20243;-93
2023/04/16 12:03:11;;;;;;;15.27;5.25;;;11.10;99.90;;;;;;4054203;29;20237;-93
2023/04/16 12:05:32;;;;;;;14.73;5.53;;;11.20;99.90;;;;;;4054000;29;20223;-94
2023/04/16 12:07:45;;;;;;;15.27;5.33;;;11.40;99.90;;;;;;4054523;29;20193;-94
2023/04/16 12:09:46;;;;;;;12.97;5.63;;;11.40;99.90;;;;;;4054456;29;20188;-94
2023/04/16 12:11:47;;;;;;;11.97;5.87;;;11.30;99.90;;;;;;4054573;29;20272;-94
2023/04/16 12:14:07;;;;;;;14.17;5.83;;;11.10;99.90;;;;;;4054326;29;20195;-94
2023/04/16 12:16:20;;;;;;;16.27;5.80;;;11.10;99.90;;;;;;4054283;29;20173;-94
2023/04/16 12:18:23;;;;;;;13.77;5.27;;;11.00;99.90;;;;;;4054119;29;20185;-93
2023/04/16 12:20:23;;;;;;;18.15;4.95;;;11.20;99.90;;;;;;4054138;29;20245;-93
2023/04/16 12:22:33;;;;;;;12.95;5.03;;;11.50;99.90;;;;;;4053129;29;20189;-93
2023/04/16 12:24:35;;;;;;;15.02;5.15;;;11.80;99.90;;;;;;4054032;29;20193;-93
2023/04/16 12:26:44;;;;;;;19.17;5.77;;;11.80;99.90;;;;;;4054137;29;20593;-93
2023/04/16 12:28:44;;;;;;;14.03;5.50;;;11.70;99.90;;;;;;4054206;29;20168;-94
2023/04/16 12:30:52;;;;;;;14.00;5.30;;;11.50;99.90;;;;;;4054075;29;20208;-92
2023/04/16 12:33:13;;;;;;;19.13;6.13;;;11.20;99.90;;;;;;4054233;29;20184;-93
2023/04/16 12:35:34;;;;;;;13.65;5.50;;;11.30;99.90;;;;;;4053972;29;20215;-93
2023/04/16 12:37:36;;;;;;;11.63;5.60;;;11.20;99.90;;;;;;4053889;29;20586;-93
2023/04/16 12:39:36;;;;;;;14.07;5.45;;;11.30;99.90;;;;;;4053843;29;20229;-92
2023/04/16 12:41:39;;;;;;;11.40;5.20;;;11.40;99.90;;;;;;4054086;29;20180;-93
2023/04/16 12:43:40;;;;;;;13.45;5.05;;;11.60;99.90;;;;;;4053534;29;20200;-93
2023/04/16 12:45:41;;;;;;;13.75;5.15;;;11.70;99.90;;;;;;4053762;29;20223;-93
2023/04/16 12:47:41;;;;;;;13.77;4.93;;;11.90;99.90;;;;;;4053673;29;20189;-93
2023/04/16 12:49:43;;;;;;;14.80;5.13;;;12.20;99.90;;;;;;4053810;29;20181;-92
2023/04/16 12:51:44;;;;;;;13.65;4.80;;;12.30;99.90;;;;;;4053613;29;20184;-92
2023/04/16 12:53:45;;;;;;;13.75;4.82;;;12.20;99.90;;;;;;4053496;29;20288;-93
2023/04/16 12:55:45;;;;;;;14.40;5.13;;;12.00;99.90;;;;;;4053653;29;20546;-92
2023/04/16 12:57:47;;;;;;;16.20;4.80;;;12.10;99.90;;;;;;4038225;29;20272;-92
2023/04/16 12:59:48;;;;;;;14.57;4.88;;;12.20;99.90;;;;;;4053827;29;20185;-94
2023/04/16 13:01:49;;;;;;;11.10;5.03;;;12.30;99.90;;;;;;4053834;29;20192;-93
2023/04/16 13:03:50;;;;;;;11.32;5.07;;;12.50;99.90;;;;;;4053555;29;20201;-92
2023/04/16 13:05:51;;;;;;;17.92;5.22;;;12.80;99.90;;;;;;4053690;29;20693;-95
2023/04/16 13:07:52;;;;;;;15.07;4.82;;;12.60;99.90;;;;;;4053648;29;20173;-93
2023/04/16 13:09:53;;;;;;;14.57;5.05;;;12.50;99.90;;;;;;4053482;29;20263;-93
2023/04/16 13:11:54;;;;;;;17.65;4.97;;;12.20;99.90;;;;;;4053508;29;20249;-94
2023/04/16 13:13:55;;;;;;;13.07;4.80;;;12.10;99.90;;;;;;4037839;29;20209;-93
2023/04/16 13:15:55;;;;;;;12.63;5.40;;;12.00;99.90;;;;;;4053404;29;20204;-94
2023/04/16 13:17:56;;;;;;;16.85;5.43;;;12.00;99.90;;;;;;4037753;29;20181;-94
2023/04/16 13:19:57;;;;;;;12.60;5.63;;;12.20;99.90;;;;;;4053085;29;20176;-92
2023/04/16 13:21:58;;;;;;;14.68;6.20;;;12.30;99.90;;;;;;4037795;29;20252;-92
2023/04/16 13:23:59;;;;;;;10.10;5.85;;;12.20;99.90;;;;;;4053160;29;20205;-93
2023/04/16 13:26:00;;;;;;;13.35;5.85;;;12.00;99.90;;;;;;4053176;29;20654;-92
2023/04/16 13:28:00;;;;;;;14.30;6.10;;;11.80;99.90;;;;;;4053288;29;20185;-93
2023/04/16 13:30:01;;;;;;;13.13;6.63;;;11.50;99.90;;;;;;4037664;29;20223;-94
2023/04/16 13:32:03;;;;;;;15.02;6.18;;;11.60;99.90;;;;;;4053113;29;20264;-93
2023/04/16 13:34:03;;;;;;;13.57;6.00;;;11.60;99.90;;;;;;4053009;29;20310;-93
2023/04/16 13:36:05;;;;;;;14.30;6.22;;;11.60;99.90;;;;;;4053108;29;20648;-93
2023/04/16 13:38:05;;;;;;;10.73;5.05;;;11.70;99.90;;;;;;4053241;29;20177;-94
2023/04/16 13:40:07;;;;;;;13.90;5.72;;;11.70;99.90;;;;;;4052875;29;20165;-93
2023/04/16 13:42:08;;;;;;;10.43;4.82;;;12.00;99.90;;;;;;4053079;29;20229;-92
2023/04/16 13:44:08;;;;;;;10.20;5.93;;;12.30;99.90;;;;;;4053054;29;20593;-93
2023/04/16 13:46:09;;;;;;;9.02;6.03;;;12.40;99.90;;;;;;4052787;29;20232;-92
2023/04/16 13:48:10;;;;;;;21.50;6.93;;;12.50;99.90;;;;;;4052982;29;20520;-94
2023/04/16 13:50:11;;;;;;;8.75;5.93;;;12.30;99.90;;;;;;4052861;29;20180;-93
2023/04/16 13:52:12;;;;;;;16.55;7.00;;;12.40;99.90;;;;;;4052886;29;20173;-93
2023/04/16 13:54:12;;;;;;;12.60;6.90;;;12.30;99.90;;;;;;4037132;29;20554;-93
2023/04/16 13:56:13;;;;;;;11.35;6.18;;;12.10;99.90;;;;;;4052726;29;20208;-94
2023/04/16 13:58:15;;;;;;;12.25;5.70;;;11.80;99.90;;;;;;4052746;29;20200;-93
2023/04/16 14:00:16;;;;;;;16.50;6.40;;;11.70;99.90;;;;;;4052663;29;20177;-95
2023/04/16 14:02:17;;;;;;;12.07;6.05;;;11.70;99.90;;;;;;4052654;29;20165;-94
2023/04/16 14:04:17;;;;;;;12.73;5.82;;;11.80;99.90;;;;;;4037309;29;20241;-93
2023/04/16 14:06:18;;;;;;;10.77;5.25;;;12.00;99.90;;;;;;4052621;29;20223;-93
2023/04/16 14:08:20;;;;;;;11.90;5.00;;;12.30;99.90;;;;;;4037131;29;20173;-94
2023/04/16 14:10:20;;;;;;;15.52;5.25;;;12.40;99.90;;;;;;4052528;29;20292;-92
2023/04/16 14:12:21;;;;;;;9.48;4.63;;;12.60;99.90;;;;;;4052839;29;20681;-93
2023/04/16 14:14:22;;;;;;;13.45;5.28;;;12.80;99.90;;;;;;4052199;29;20200;-95
2023/04/16 14:16:23;;;;;;;13.57;6.93;;;12.90;99.90;;;;;;4052695;29;20681;-95
2023/04/16 14:18:23;;;;;;;14.43;7.47;;;12.90;99.90;;;;;;4052491;29;20181;-94
2023/04/16 14:20:24;;;;;;;13.10;6.43;;;12.80;99.90;;;;;;4052286;29;20598;-94
2023/04/16 14:22:25;;;;;;;11.60;5.90;;;12.80;99.90;;;;;;4052439;29;20245;-93
2023/04/16 14:24:26;;;;;;;16.65;5.95;;;12.90;99.90;;;;;;4052458;29;20205;-93
2023/04/16 14:26:26;;;;;;;12.18;4.95;;;13.00;99.90;;;;;;4037123;29;20217;-92
2023/04/16 14:28:27;;;;;;;9.88;4.70;;;13.00;99.90;;;;;;4052501;29;20213;-92
2023/04/16 14:30:28;;;;;;;11.05;4.25;;;13.20;99.90;;;;;;4037229;29;20270;-94
2023/04/16 14:32:29;;;;;;;9.35;3.97;;;12.80;99.90;;;;;;4052388;29;20165;-91
2023/04/16 14:34:30;;;;;;;9.30;4.45;;;12.80;99.90;;;;;;4052148;29;20204;-93
2023/04/16 14:36:31;;;;;;;10.13;4.60;;;13.20;99.90;;;;;;4052341;29;21010;-93
2023/04/16 14:38:31;;;;;;;10.93;4.38;;;13.30;99.90;;;;;;4052346;29;20180;-94
2023/04/16 14:40:33;;;;;;;16.48;5.07;;;13.30;99.90;;;;;;4036807;29;20551;-93
2023/04/16 14:42:37;;;;;;;11.88;5.47;;;13.30;99.90;;;;;;4052489;29;20173;-94
2023/04/16 14:44:38;;;;;;;10.57;4.65;;;13.10;99.90;;;;;;4052073;29;20205;-93
2023/04/16 14:46:39;;;;;;;12.35;4.22;;;13.00;99.90;;;;;;4052013;29;20723;-94
2023/04/16 14:48:40;;;;;;;12.45;4.03;;;13.00;99.90;;;;;;4052291;29;20225;-95
2023/04/16 14:50:42;;;;;;;9.73;4.65;;;13.00;99.90;;;;;;4052336;29;20181;-93
2023/04/16 14:52:43;;;;;;;11.25;4.35;;;13.00;99.90;;;;;;4052116;29;20219;-93
2023/04/16 14:54:44;;;;;;;9.40;5.40;;;12.90;99.90;;;;;;4052140;29;20201;-94
2023/04/16 14:56:46;;;;;;;8.55;4.32;;;12.80;99.90;;;;;;4052078;29;20243;-94
2023/04/16 14:58:47;;;;;;;10.95;4.65;;;12.70;99.90;;;;;;4052147;29;20552;-94
2023/04/16 15:00:47;;;;;;;7.63;4.40;;;12.70;99.90;;;;;;4052190;29;20651;-94
2023/04/16 15:02:48;;;;;;;7.70;4.85;;;12.60;99.90;;;;;;4052882;29;20176;-93
2023/04/16 15:04:49;;;;;;;7.32;4.75;;;12.40;99.90;;;;;;4051961;29;20218;-93
2023/04/16 15:06:50;;;;;;;11.00;5.95;;;12.30;99.90;;;;;;4052071;29;20177;-93
2023/04/16 15:08:51;;;;;;;7.55;5.03;;;12.20;99.90;;;;;;4052275;29;20181;-94
2023/04/16 15:10:51;;;;;;;10.80;5.43;;;12.10;99.90;;;;;;4036788;29;20189;-93
2023/04/16 15:12:52;;;;;;;13.07;5.70;;;12.20;99.90;;;;;;4052086;29;20278;-94
2023/04/16 15:14:53;;;;;;;8.68;4.90;;;12.00;99.90;;;;;;4036475;29;20188;-93
2023/04/16 15:16:54;;;;;;;13.43;5.07;;;12.20;99.90;;;;;;4052008;29;20312;-93
2023/04/16 15:18:54;;;;;;;6.78;4.10;;;12.20;99.90;;;;;;4021144;29;20186;-93
2023/04/16 15:20:55;;;;;;;9.85;4.68;;;12.20;99.90;;;;;;4052015;29;20181;-94
2023/04/16 15:22:56;;;;;;;10.37;4.87;;;12.10;99.90;;;;;;4036522;29;20224;-93
2023/04/16 15:24:57;;;;;;;13.07;4.78;;;12.00;99.90;;;;;;4051879;29;20264;-93
2023/04/16 15:26:58;;;;;;;8.18;4.80;;;11.80;99.90;;;;;;4036497;29;20181;-93
2023/04/16 15:28:58;;;;;;;11.27;4.40;;;11.90;99.90;;;;;;4051790;29;20382;-92
2023/04/16 15:30:59;;;;;;;11.70;5.37;;;12.00;99.90;;;;;;4052045;29;20271;-93
2023/04/16 15:33:00;;;;;;;10.20;5.10;;;12.00;99.90;;;;;;4051813;29;20211;-93
2023/04/16 15:35:03;;;;;;;12.05;5.65;;;11.90;99.90;;;;;;4052022;29;20638;-93
2023/04/16 15:37:04;;;;;;;9.23;4.93;;;11.70;99.90;;;;;;4052312;29;20181;-92
2023/04/16 15:39:05;;;;;;;11.70;5.78;;;11.70;99.90;;;;;;4051967;29;20173;-94
2023/04/16 15:41:05;;;;;;;7.88;4.80;;;11.70;99.90;;;;;;4052238;29;20177;-93
2023/04/16 15:43:06;;;;;;;9.48;5.45;;;11.70;99.90;;;;;;4052070;29;20177;-94
2023/04/16 15:45:07;;;;;;;10.15;5.20;;;11.70;99.90;;;;;;4051925;29;20174;-93
2023/04/16 15:47:08;;;;;;;11.53;4.73;;;11.60;99.90;;;;;;4051986;29;20206;-93
2023/04/16 15:49:09;;;;;;;9.45;4.97;;;11.60;99.90;;;;;;4036809;29;20182;-94
2023/04/16 15:51:10;;;;;;;9.35;5.60;;;11.60;99.90;;;;;;4051983;29;20264;-93
2023/04/16 15:53:11;;;;;;;7.13;4.93;;;11.50;99.90;;;;;;4036376;29;20205;-91
2023/04/16 15:55:13;;;;;;;7.47;4.70;;;11.50;99.90;;;;;;4051891;29;20177;-94
2023/04/16 15:57:14;;;;;;;8.85;5.35;;;11.40;99.90;;;;;;4052253;29;20561;-94
2023/04/16 15:59:15;;;;;;;10.57;5.33;;;11.40;99.90;;;;;;4054688;29;20264;-93
2023/04/16 16:01:16;;;;;;;8.52;4.57;;;11.40;99.90;;;;;;4054868;29;20181;-95
2023/04/16 16:03:17;;;;;;;14.95;5.05;;;11.50;99.90;;;;;;4054527;29;20208;-94
2023/04/16 16:05:18;;;;;;;10.15;4.85;;;11.60;99.90;;;;;;4054353;29;20212;-93
2023/04/16 16:07:19;;;;;;;9.07;4.93;;;11.70;99.90;;;;;;4054527;29;20317;-93
2023/04/16 16:09:25;;;;;;;11.85;5.32;;;11.80;99.90;;;;;;4054681;29;20181;-94
2023/04/16 16:11:26;;;;;;;13.38;4.18;;;11.80;99.90;;;;;;4054546;29;20192;-92
2023/04/16 16:13:27;;;;;;;9.15;3.92;;;11.90;99.90;;;;;;4054358;29;20196;-93
2023/04/16 16:15:28;;;;;;;11.68;4.43;;;11.80;99.90;;;;;;4054324;29;20165;-92
2023/04/16 16:17:28;;;;;;;11.10;4.68;;;11.90;99.90;;;;;;4039176;29;20185;-93
2023/04/16 16:19:31;;;;;;;10.65;4.90;;;12.00;99.90;;;;;;4054445;29;20610;-93
2023/04/16 16:21:32;;;;;;;10.13;4.95;;;12.10;99.90;;;;;;4054521;29;20256;-93
2023/04/16 16:23:32;;;;;;;12.73;4.57;;;12.00;99.90;;;;;;4054341;29;20204;-93
2023/04/16 16:25:33;;;;;;;10.25;4.53;;;12.00;99.90;;;;;;4038800;29;20653;-93
2023/04/16 16:27:35;;;;;;;12.95;5.10;;;11.90;99.90;;;;;;4054470;29;20181;-94
2023/04/16 16:29:35;;;;;;;10.80;4.70;;;12.00;99.90;;;;;;4054367;29;20783;-94
2023/04/16 16:31:36;;;;;;;7.20;4.18;;;12.00;99.90;;;;;;4054538;29;20188;-93
2023/04/16 16:33:37;;;;;;;11.65;4.50;;;12.10;99.90;;;;;;4054275;29;20204;-94